Time;durP1;ratioP1;P1;durP2;ratioP2;P2;SDS_P1;SDS_P2;PMS_P1;PMS_P2;Temp;Humidity;BMP_temperature;BMP_pressure;BME280_temperature;BME280_humidity;BME280_pressure;Samples;Min_cycle;Max_cycle;Signal;HPM_P1;HPM_P2
2020/12/02 00:00:32;;;;;;;32.53;13.38;;;-2.30;99.90;;;;;;5017255;28;20064;-44
2020/12/02 00:03:13;;;;;;;33.97;13.65;;;-2.30;99.90;;;;;;5017560;28;20053;-46
2020/12/02 00:05:43;;;;;;;32.50;14.65;;;-2.30;99.90;;;;;;5015301;28;20100;-45
2020/12/02 00:08:16;;;;;;;34.38;14.30;;;-2.40;99.90;;;;;;5016270;28;20191;-46
2020/12/02 00:10:41;;;;;;;35.95;14.77;;;-2.40;99.90;;;;;;5015071;28;20125;-45
2020/12/02 00:13:17;;;;;;;30.65;13.13;;;-2.40;99.90;;;;;;5015718;28;20099;-43
2020/12/02 00:15:42;;;;;;;22.48;8.93;;;-2.40;99.90;;;;;;5017565;28;20034;-47
2020/12/02 00:18:09;;;;;;;32.90;13.15;;;-2.40;99.90;;;;;;5023754;28;20038;-47
2020/12/02 00:20:34;;;;;;;31.88;12.40;;;-2.40;99.90;;;;;;5017820;28;20103;-46
2020/12/02 00:23:00;;;;;;;35.25;14.13;;;-2.40;99.90;;;;;;5021557;28;20073;-45
2020/12/02 00:25:26;;;;;;;34.38;13.27;;;-2.50;99.90;;;;;;5020225;28;20052;-45
2020/12/02 00:27:51;;;;;;;33.70;13.38;;;-2.50;99.90;;;;;;5017526;28;20108;-47
2020/12/02 00:30:18;;;;;;;33.67;14.27;;;-2.50;99.90;;;;;;5025738;28;20041;-44
2020/12/02 00:32:46;;;;;;;33.17;14.60;;;-2.50;99.90;;;;;;5026881;28;20109;-44
2020/12/02 00:35:18;;;;;;;34.08;13.65;;;-2.50;99.90;;;;;;5013366;28;20080;-41
2020/12/02 00:37:45;;;;;;;28.67;12.85;;;-2.50;99.90;;;;;;5019654;28;20116;-45
2020/12/02 00:40:11;;;;;;;38.67;15.50;;;-2.50;99.90;;;;;;5015555;28;20107;-43
2020/12/02 00:42:37;;;;;;;25.25;11.10;;;-2.50;99.90;;;;;;5018599;28;20037;-46
2020/12/02 00:45:08;;;;;;;31.33;13.43;;;-2.50;99.90;;;;;;5018579;28;20488;-45
2020/12/02 00:47:35;;;;;;;31.98;14.50;;;-2.50;99.90;;;;;;5019017;28;20030;-46
2020/12/02 00:50:01;;;;;;;32.97;13.13;;;-2.50;99.90;;;;;;5014960;28;20408;-45
2020/12/02 00:52:26;;;;;;;33.13;13.00;;;-2.50;99.90;;;;;;5025135;28;20087;-45
2020/12/02 00:54:53;;;;;;;40.80;16.65;;;-2.50;99.90;;;;;;5019952;28;20056;-43
2020/12/02 00:57:25;;;;;;;24.33;11.73;;;-2.50;99.90;;;;;;5015728;28;20096;-44
2020/12/02 00:59:54;;;;;;;33.83;13.52;;;-2.50;99.90;;;;;;5023075;28;20029;-47
2020/12/02 01:02:43;;;;;;;37.53;15.52;;;-2.50;99.90;;;;;;5020948;28;20037;-45
2020/12/02 01:05:13;;;;;;;27.27;11.23;;;-2.50;99.90;;;;;;5017550;28;20057;-47
2020/12/02 01:07:41;;;;;;;35.47;14.05;;;-2.50;99.90;;;;;;5019763;28;20044;-44
2020/12/02 01:10:08;;;;;;;27.70;11.23;;;-2.50;99.90;;;;;;5016892;28;20185;-45
2020/12/02 01:12:37;;;;;;;34.60;14.45;;;-2.50;99.90;;;;;;5015673;28;20033;-44
2020/12/02 01:15:06;;;;;;;35.92;13.32;;;-2.50;99.90;;;;;;5015094;28;20136;-47
2020/12/02 01:17:31;;;;;;;37.67;15.02;;;-2.50;99.90;;;;;;5018347;28;20077;-46
2020/12/02 01:19:57;;;;;;;28.45;11.93;;;-2.50;99.90;;;;;;5022135;28;20053;-44
2020/12/02 01:22:35;;;;;;;37.03;16.27;;;-2.60;99.90;;;;;;5022544;28;20042;-45
2020/12/02 01:25:15;;;;;;;42.70;15.20;;;-2.60;99.90;;;;;;5019963;28;20477;-45
2020/12/02 01:27:54;;;;;;;35.50;16.75;;;-2.60;99.90;;;;;;5020720;28;20047;-43
2020/12/02 01:30:22;;;;;;;36.42;16.70;;;-2.60;99.90;;;;;;5023345;28;20295;-45
2020/12/02 01:32:47;;;;;;;35.95;15.10;;;-2.60;99.90;;;;;;5017968;28;20041;-45
2020/12/02 01:35:19;;;;;;;57.90;22.42;;;-2.60;99.90;;;;;;5019195;28;20447;-44
2020/12/02 01:37:49;;;;;;;35.30;16.80;;;-2.50;99.90;;;;;;5016900;28;20040;-45
2020/12/02 01:40:20;;;;;;;38.95;16.88;;;-2.30;99.90;;;;;;5018917;28;20030;-47
2020/12/02 01:42:54;;;;;;;38.15;16.05;;;-2.30;99.90;;;;;;5017893;28;20387;-46
2020/12/02 01:45:35;;;;;;;40.20;15.02;;;-2.40;99.90;;;;;;5020831;28;20068;-48
2020/12/02 01:48:31;;;;;;;40.70;14.35;;;-2.50;99.90;;;;;;5023302;28;20519;-45
2020/12/02 01:51:02;;;;;;;25.97;9.60;;;-2.50;99.90;;;;;;5021554;28;20021;-51
2020/12/02 01:53:49;;;;;;;43.28;15.98;;;-2.50;99.90;;;;;;5029257;28;20267;-45
2020/12/02 01:56:41;;;;;;;41.22;15.73;;;-2.50;99.90;;;;;;5025963;28;20022;-47
2020/12/02 01:59:37;;;;;;;44.33;17.25;;;-2.50;99.90;;;;;;5024354;28;20056;-47
2020/12/02 02:02:11;;;;;;;42.42;16.70;;;-2.50;99.90;;;;;;5027951;28;20029;-48
2020/12/02 02:04:47;;;;;;;46.53;19.05;;;-2.40;99.90;;;;;;5022396;28;20034;-44
2020/12/02 02:07:16;;;;;;;23.92;10.48;;;-2.40;99.90;;;;;;5021906;28;20034;-48
2020/12/02 02:09:45;;;;;;;39.95;16.90;;;-2.30;99.90;;;;;;5022965;28;20041;-49
2020/12/02 02:12:49;;;;;;;37.85;17.15;;;-2.30;99.90;;;;;;5024062;28;20037;-44
2020/12/02 02:15:26;;;;;;;42.72;16.45;;;-2.30;99.90;;;;;;5019920;28;20062;-44
2020/12/02 02:18:00;;;;;;;43.40;16.65;;;-2.40;99.90;;;;;;5020303;28;20017;-45
2020/12/02 02:20:31;;;;;;;48.28;16.52;;;-2.50;99.90;;;;;;5025840;28;20029;-45
2020/12/02 02:22:57;;;;;;;51.30;18.95;;;-2.50;99.90;;;;;;5016926;28;20594;-47
2020/12/02 02:25:22;;;;;;;44.70;18.15;;;-2.50;99.90;;;;;;5021370;28;20049;-47
2020/12/02 02:27:49;;;;;;;40.35;15.65;;;-2.50;99.90;;;;;;5021950;28;20033;-46
2020/12/02 02:30:16;;;;;;;36.20;16.27;;;-2.60;99.90;;;;;;5021182;28;20544;-47
2020/12/02 02:32:42;;;;;;;40.42;16.65;;;-2.60;99.90;;;;;;5026251;28;20056;-45
2020/12/02 02:35:10;;;;;;;40.90;14.75;;;-2.70;99.90;;;;;;5021123;28;20049;-45
2020/12/02 02:37:35;;;;;;;44.58;16.17;;;-2.70;99.90;;;;;;5025703;28;20476;-45
2020/12/02 02:40:08;;;;;;;44.03;18.17;;;-2.70;99.90;;;;;;5015738;28;20025;-42
2020/12/02 02:42:46;;;;;;;48.25;17.80;;;-2.70;99.90;;;;;;5032808;28;20049;-44
2020/12/02 02:45:26;;;;;;;51.78;18.15;;;-2.70;99.90;;;;;;5019892;28;20037;-47
2020/12/02 02:47:53;;;;;;;49.15;18.10;;;-2.70;99.90;;;;;;5025295;28;20026;-44
2020/12/02 02:50:22;;;;;;;44.65;16.63;;;-2.60;99.90;;;;;;5019194;28;21040;-45
2020/12/02 02:52:47;;;;;;;46.22;17.58;;;-2.60;99.90;;;;;;5021763;28;20034;-46
2020/12/02 02:55:18;;;;;;;45.10;16.75;;;-2.60;99.90;;;;;;5018290;28;20123;-45
2020/12/02 02:57:43;;;;;;;43.30;18.17;;;-2.60;99.90;;;;;;5021472;28;20026;-42
2020/12/02 03:00:15;;;;;;;49.58;16.95;;;-2.60;99.90;;;;;;5018791;28;20041;-43
2020/12/02 03:02:40;;;;;;;46.95;18.20;;;-2.60;99.90;;;;;;5021173;28;20052;-44
2020/12/02 03:05:07;;;;;;;38.50;14.50;;;-2.60;99.90;;;;;;5016362;28;20034;-42
2020/12/02 03:07:33;;;;;;;41.03;17.15;;;-2.50;99.90;;;;;;5018550;28;20053;-43
2020/12/02 03:09:59;;;;;;;44.42;17.90;;;-2.50;99.90;;;;;;5020234;28;20075;-43
2020/12/02 03:12:25;;;;;;;61.03;22.08;;;-2.50;99.90;;;;;;5017783;28;20129;-44
2020/12/02 03:14:53;;;;;;;53.10;19.75;;;-2.50;99.90;;;;;;5017547;28;20029;-43
2020/12/02 03:17:21;;;;;;;65.40;22.25;;;-2.40;99.90;;;;;;5019450;28;20105;-46
2020/12/02 03:19:54;;;;;;;50.92;19.20;;;-2.30;99.90;;;;;;5022245;28;20056;-45
2020/12/02 03:22:22;;;;;;;62.00;21.42;;;-2.20;99.90;;;;;;5027110;28;20047;-48
2020/12/02 03:24:49;;;;;;;63.25;22.52;;;-2.20;99.90;;;;;;5022367;28;20435;-45
2020/12/02 03:27:15;;;;;;;57.08;21.35;;;-2.10;99.90;;;;;;5023828;28;20103;-44
2020/12/02 03:29:40;;;;;;;56.42;21.17;;;-2.00;99.90;;;;;;5024211;28;20400;-43
2020/12/02 03:32:06;;;;;;;64.18;22.48;;;-2.00;99.90;;;;;;5015084;28;20026;-47
2020/12/02 03:34:31;;;;;;;50.25;18.08;;;-2.00;99.90;;;;;;5020981;28;20033;-43
2020/12/02 03:36:57;;;;;;;51.42;20.88;;;-1.90;99.90;;;;;;5023949;28;20030;-45
2020/12/02 03:39:22;;;;;;;63.83;24.85;;;-1.80;99.90;;;;;;5019648;28;20060;-44
2020/12/02 03:41:48;;;;;;;47.88;19.38;;;-1.80;99.90;;;;;;5023667;28;20431;-46
2020/12/02 03:44:14;;;;;;;62.55;25.38;;;-1.80;99.90;;;;;;5026529;28;20037;-44
2020/12/02 03:46:40;;;;;;;58.03;20.65;;;-1.70;99.90;;;;;;5025804;28;20037;-44
2020/12/02 03:49:06;;;;;;;60.08;22.38;;;-1.60;99.90;;;;;;5019369;28;20113;-46
2020/12/02 03:51:32;;;;;;;46.70;18.98;;;-1.60;99.90;;;;;;5013384;28;20152;-42
2020/12/02 03:53:58;;;;;;;34.83;16.27;;;-1.50;99.90;;;;;;5022452;28;20547;-49
2020/12/02 03:56:24;;;;;;;56.42;20.98;;;-1.50;99.90;;;;;;5016744;28;20278;-43
2020/12/02 03:58:50;;;;;;;54.38;19.35;;;-1.50;99.90;;;;;;5018104;28;20022;-46
2020/12/02 04:01:16;;;;;;;55.25;20.38;;;-1.40;99.90;;;;;;5021118;28;20925;-46
2020/12/02 04:03:41;;;;;;;52.45;18.70;;;-1.40;99.90;;;;;;5019845;28;20034;-48
2020/12/02 04:06:08;;;;;;;51.25;19.45;;;-1.40;99.90;;;;;;5018683;28;20037;-44
2020/12/02 04:08:36;;;;;;;63.28;22.85;;;-1.30;99.90;;;;;;5018800;28;20080;-48
2020/12/02 04:11:02;;;;;;;40.22;16.92;;;-1.40;99.90;;;;;;5015929;28;20400;-51
2020/12/02 04:13:27;;;;;;;41.20;16.58;;;-1.30;99.90;;;;;;5017602;28;20244;-49
2020/12/02 04:15:53;;;;;;;49.72;18.88;;;-1.30;99.90;;;;;;5018389;28;20041;-50
2020/12/02 04:18:19;;;;;;;45.72;18.67;;;-1.30;99.90;;;;;;5016377;28;20036;-48
2020/12/02 04:20:45;;;;;;;49.75;20.83;;;-1.20;99.90;;;;;;5015759;28;20108;-47
2020/12/02 04:23:10;;;;;;;50.97;20.60;;;-1.20;99.90;;;;;;5017906;28;20497;-45
2020/12/02 04:25:36;;;;;;;53.42;21.70;;;-1.20;99.90;;;;;;5019489;28;20617;-47
2020/12/02 04:28:01;;;;;;;42.50;19.38;;;-1.20;99.90;;;;;;5015436;28;20030;-43
2020/12/02 04:30:27;;;;;;;57.05;20.90;;;-1.20;99.90;;;;;;5017384;28;20097;-42
2020/12/02 04:32:52;;;;;;;49.15;19.58;;;-1.10;99.90;;;;;;5021304;28;20025;-44
2020/12/02 04:35:19;;;;;;;53.65;22.17;;;-1.10;99.90;;;;;;5022842;28;20484;-44
2020/12/02 04:37:44;;;;;;;50.08;21.40;;;-1.10;99.90;;;;;;5018284;28;20034;-45
2020/12/02 04:40:19;;;;;;;44.72;18.85;;;-1.10;99.90;;;;;;5015239;28;20033;-44
2020/12/02 04:42:49;;;;;;;53.10;22.35;;;-1.00;99.90;;;;;;5016282;28;20075;-44
2020/12/02 04:45:17;;;;;;;44.30;18.52;;;-1.00;99.90;;;;;;5018426;28;20033;-44
2020/12/02 04:47:44;;;;;;;53.88;21.52;;;-1.00;99.90;;;;;;5016037;28;20088;-43
2020/12/02 04:50:25;;;;;;;43.67;18.75;;;-1.00;99.90;;;;;;5019958;28;20499;-43
2020/12/02 04:53:19;;;;;;;45.50;18.35;;;-0.90;99.90;;;;;;5028413;28;20036;-44
2020/12/02 04:55:51;;;;;;;40.78;18.15;;;-0.90;99.90;;;;;;5022806;28;20063;-45
2020/12/02 04:58:29;;;;;;;53.15;21.00;;;-0.90;99.90;;;;;;5025889;28;20018;-43
2020/12/02 05:01:13;;;;;;;56.38;21.48;;;-0.90;99.90;;;;;;5019447;28;20459;-49
2020/12/02 05:03:50;;;;;;;55.10;22.30;;;-0.80;99.90;;;;;;5024818;28;20527;-45
2020/12/02 05:06:32;;;;;;;54.95;21.25;;;-0.80;99.90;;;;;;5022648;28;20048;-45
2020/12/02 05:09:20;;;;;;;55.65;22.17;;;-0.80;99.90;;;;;;5029211;28;20041;-44
2020/12/02 05:12:04;;;;;;;64.38;24.42;;;-0.70;99.90;;;;;;5026245;28;20431;-47
2020/12/02 05:14:44;;;;;;;57.83;23.85;;;-0.70;99.90;;;;;;5029808;28;20039;-48
2020/12/02 05:17:23;;;;;;;55.60;23.27;;;-0.70;99.90;;;;;;5024413;28;20025;-48
2020/12/02 05:20:14;;;;;;;56.13;22.52;;;-0.70;99.90;;;;;;5026480;28;20114;-46
2020/12/02 05:22:46;;;;;;;47.58;19.17;;;-0.60;99.90;;;;;;5027188;28;20037;-46
2020/12/02 05:25:18;;;;;;;52.70;21.15;;;-0.60;99.90;;;;;;5022130;28;20541;-42
2020/12/02 05:27:48;;;;;;;43.42;18.08;;;-0.60;99.90;;;;;;5025372;28;20060;-43
2020/12/02 05:30:28;;;;;;;56.47;21.10;;;-0.60;99.90;;;;;;5028125;28;20044;-44
2020/12/02 05:33:10;;;;;;;50.30;21.02;;;-0.60;99.90;;;;;;5020477;28;20037;-44
2020/12/02 05:35:38;;;;;;;53.83;19.73;;;-0.60;99.90;;;;;;5021612;28;20032;-43
2020/12/02 05:38:07;;;;;;;61.80;22.95;;;-0.60;99.90;;;;;;5021021;28;20033;-44
2020/12/02 05:40:36;;;;;;;56.83;23.45;;;-0.50;99.90;;;;;;5020958;28;20468;-46
2020/12/02 05:43:13;;;;;;;64.57;24.58;;;-0.50;99.90;;;;;;5028621;28;20423;-44
2020/12/02 05:45:42;;;;;;;60.28;23.92;;;-0.50;99.90;;;;;;5023210;28;20488;-42
2020/12/02 05:48:17;;;;;;;54.03;21.83;;;-0.50;99.90;;;;;;5019431;28;20461;-46
2020/12/02 05:50:47;;;;;;;52.83;21.83;;;-0.50;99.90;;;;;;5021964;28;20022;-45
2020/12/02 05:53:26;;;;;;;65.38;23.20;;;-0.40;99.90;;;;;;5022228;28;20044;-44
2020/12/02 05:55:53;;;;;;;53.78;21.38;;;-0.40;99.90;;;;;;5023519;28;20117;-46
2020/12/02 05:58:26;;;;;;;43.85;19.55;;;-0.40;99.90;;;;;;5021054;28;20057;-43
2020/12/02 06:00:58;;;;;;;72.60;27.52;;;-0.40;99.90;;;;;;5019246;28;20041;-43
2020/12/02 06:03:30;;;;;;;64.95;25.20;;;-0.40;99.90;;;;;;5011837;28;20037;-43
2020/12/02 06:06:04;;;;;;;47.85;19.50;;;-0.40;99.90;;;;;;5015858;28;20033;-44
2020/12/02 06:08:37;;;;;;;48.42;19.20;;;-0.40;99.90;;;;;;5021027;28;20068;-43
2020/12/02 06:11:34;;;;;;;57.75;24.85;;;-0.30;99.90;;;;;;5019225;28;20113;-44
2020/12/02 06:14:17;;;;;;;64.68;22.13;;;-0.40;99.90;;;;;;5018323;28;20036;-48
2020/12/02 06:16:47;;;;;;;49.00;19.00;;;-0.30;99.90;;;;;;5018646;28;20040;-45
2020/12/02 06:19:18;;;;;;;64.78;22.73;;;-0.30;99.90;;;;;;5028394;28;20029;-44
2020/12/02 06:21:50;;;;;;;64.72;24.90;;;-0.30;99.90;;;;;;5028445;28;20643;-44
2020/12/02 06:24:39;;;;;;;60.58;22.17;;;-0.30;99.90;;;;;;5021922;28;20045;-46
2020/12/02 06:27:13;;;;;;;65.05;23.33;;;-0.30;99.90;;;;;;5029820;28;20021;-44
2020/12/02 06:29:42;;;;;;;65.28;25.48;;;-0.30;99.90;;;;;;5020963;28;20030;-43
2020/12/02 06:32:13;;;;;;;59.00;21.98;;;-0.20;99.90;;;;;;5024781;28;20030;-51
2020/12/02 06:34:38;;;;;;;57.38;22.30;;;-0.30;99.90;;;;;;5031385;28;20026;-44
2020/12/02 06:37:16;;;;;;;64.15;24.80;;;-0.20;99.90;;;;;;5029044;28;20033;-46
2020/12/02 06:39:54;;;;;;;60.40;23.95;;;-0.20;99.90;;;;;;5029758;28;20026;-44
2020/12/02 06:42:25;;;;;;;59.83;23.75;;;-0.20;99.90;;;;;;5030352;28;21054;-43
2020/12/02 06:45:09;;;;;;;57.70;22.63;;;-0.20;99.90;;;;;;5025253;28;20039;-46
2020/12/02 06:47:54;;;;;;;71.90;25.40;;;-0.20;99.90;;;;;;5022197;28;20029;-44
2020/12/02 06:50:25;;;;;;;52.90;21.70;;;-0.20;99.90;;;;;;5014080;28;20068;-44
2020/12/02 06:52:51;;;;;;;64.45;26.25;;;-0.20;99.90;;;;;;5022117;28;20030;-46
2020/12/02 06:55:27;;;;;;;67.28;25.23;;;-0.10;99.90;;;;;;5022731;28;20040;-44
2020/12/02 06:58:02;;;;;;;78.38;25.85;;;-0.10;99.90;;;;;;5020658;28;20500;-44
2020/12/02 07:00:42;;;;;;;61.20;24.80;;;-0.10;99.90;;;;;;5023142;28;20041;-52
2020/12/02 07:03:27;;;;;;;61.50;26.35;;;-0.10;99.90;;;;;;5028760;28;20120;-46
2020/12/02 07:06:16;;;;;;;56.85;25.30;;;-0.10;99.90;;;;;;5023657;28;21035;-46
2020/12/02 07:08:41;;;;;;;55.67;24.63;;;0.00;99.90;;;;;;5022426;28;20025;-44
2020/12/02 07:11:20;;;;;;;63.35;24.98;;;0.00;99.90;;;;;;5018829;28;20128;-44
2020/12/02 07:13:48;;;;;;;58.35;22.25;;;0.00;99.90;;;;;;5018673;28;20101;-45
2020/12/02 07:16:30;;;;;;;73.05;26.23;;;0.00;99.90;;;;;;5022493;28;20033;-49
2020/12/02 07:19:04;;;;;;;67.72;25.63;;;0.10;99.90;;;;;;5018561;28;20416;-44
2020/12/02 07:21:39;;;;;;;65.10;25.15;;;0.10;99.90;;;;;;5020549;28;20042;-45
2020/12/02 07:24:05;;;;;;;57.58;23.25;;;0.10;99.90;;;;;;5016112;28;20038;-44
2020/12/02 07:26:32;;;;;;;53.88;24.70;;;0.10;99.90;;;;;;5017740;28;20377;-44
2020/12/02 07:29:03;;;;;;;74.88;28.83;;;0.10;99.90;;;;;;5018030;28;20030;-44
2020/12/02 07:31:30;;;;;;;70.97;28.38;;;0.20;99.90;;;;;;5021454;28;20272;-46
2020/12/02 07:34:06;;;;;;;74.50;28.40;;;0.20;99.90;;;;;;5018526;28;20072;-47
2020/12/02 07:36:34;;;;;;;71.22;27.65;;;0.30;99.90;;;;;;5022543;28;20029;-43
2020/12/02 07:39:19;;;;;;;55.00;21.92;;;0.30;99.90;;;;;;5019258;28;20033;-43
2020/12/02 07:41:53;;;;;;;65.07;27.40;;;0.30;99.90;;;;;;5016327;28;20033;-46
2020/12/02 07:44:20;;;;;;;71.43;28.88;;;0.40;99.90;;;;;;5018958;28;20109;-47
2020/12/02 07:46:48;;;;;;;67.63;26.95;;;0.40;99.90;;;;;;5015970;28;20018;-44
2020/12/02 07:49:15;;;;;;;75.55;30.30;;;0.50;99.90;;;;;;5027198;28;20569;-44
2020/12/02 07:51:55;;;;;;;72.25;26.52;;;0.50;99.90;;;;;;5029412;28;20025;-47
2020/12/02 07:54:26;;;;;;;69.18;29.02;;;0.50;99.90;;;;;;5024420;28;20041;-44
2020/12/02 07:56:54;;;;;;;74.47;30.05;;;0.60;99.90;;;;;;5027211;28;20037;-45
2020/12/02 07:59:28;;;;;;;74.55;31.48;;;0.60;99.90;;;;;;5023262;28;20030;-43
2020/12/02 08:01:56;;;;;;;58.20;24.42;;;0.60;99.90;;;;;;5020862;28;20021;-46
2020/12/02 08:04:22;;;;;;;77.05;30.63;;;0.70;99.90;;;;;;5026609;28;20036;-47
2020/12/02 08:07:09;;;;;;;62.53;26.13;;;0.70;99.90;;;;;;5022939;28;20022;-42
2020/12/02 08:09:59;;;;;;;72.50;31.45;;;0.70;99.90;;;;;;5024510;28;20036;-44
2020/12/02 08:12:24;;;;;;;69.07;28.85;;;0.80;99.90;;;;;;5023468;28;20026;-45
2020/12/02 08:15:02;;;;;;;78.53;33.63;;;0.80;99.90;;;;;;5026483;28;20366;-43
2020/12/02 08:17:29;;;;;;;88.90;32.65;;;0.80;99.90;;;;;;5016254;28;20025;-42
2020/12/02 08:19:59;;;;;;;72.07;30.25;;;0.90;99.90;;;;;;5025404;28;20121;-44
2020/12/02 08:22:36;;;;;;;74.70;32.13;;;0.90;99.90;;;;;;5018973;28;20440;-44
2020/12/02 08:25:26;;;;;;;67.25;30.55;;;0.90;99.90;;;;;;5024139;28;20037;-44
2020/12/02 08:27:59;;;;;;;77.90;31.20;;;0.90;99.90;;;;;;5015095;28;20018;-47
2020/12/02 08:30:26;;;;;;;74.32;29.02;;;1.00;99.90;;;;;;5019165;28;20077;-44
2020/12/02 08:33:08;;;;;;;73.65;30.98;;;1.10;99.90;;;;;;5021659;28;20030;-44
2020/12/02 08:35:44;;;;;;;82.53;34.53;;;1.10;99.90;;;;;;5034845;28;20527;-46
2020/12/02 08:38:21;;;;;;;58.67;23.67;;;1.20;99.90;;;;;;5019167;28;20040;-46
2020/12/02 08:40:49;;;;;;;78.85;31.95;;;1.20;99.90;;;;;;5016347;28;20029;-46
2020/12/02 08:43:34;;;;;;;62.78;26.77;;;1.20;99.90;;;;;;5017540;28;20038;-49
2020/12/02 08:46:00;;;;;;;62.60;28.45;;;1.30;99.90;;;;;;5015151;28;20097;-48
2020/12/02 08:48:27;;;;;;;65.40;30.20;;;1.30;99.90;;;;;;5021720;28;20113;-43
2020/12/02 08:50:52;;;;;;;80.78;35.22;;;1.30;99.90;;;;;;5015773;28;20026;-51
2020/12/02 08:53:26;;;;;;;74.93;34.55;;;1.40;99.90;;;;;;5019384;28;20036;-49
2020/12/02 08:55:52;;;;;;;73.03;30.50;;;1.40;99.90;;;;;;5015098;28;20461;-47
2020/12/02 08:58:18;;;;;;;77.28;35.33;;;1.40;99.90;;;;;;5016194;28;20084;-48
2020/12/02 09:00:43;;;;;;;70.03;29.35;;;1.50;99.90;;;;;;5017229;28;20029;-48
2020/12/02 09:03:09;;;;;;;74.18;34.20;;;1.60;99.90;;;;;;5018867;28;20512;-46
2020/12/02 09:05:35;;;;;;;64.20;28.98;;;1.60;99.90;;;;;;5021463;28;20063;-46
2020/12/02 09:08:01;;;;;;;73.47;29.10;;;1.60;99.90;;;;;;5016466;28;20076;-44
2020/12/02 09:10:26;;;;;;;64.65;29.58;;;1.60;99.90;;;;;;5017614;28;20057;-44
2020/12/02 09:12:52;;;;;;;78.75;34.70;;;1.60;99.90;;;;;;5016634;28;20030;-43
2020/12/02 09:15:17;;;;;;;77.75;33.55;;;1.60;99.90;;;;;;5017757;28;20030;-42
2020/12/02 09:17:43;;;;;;;75.25;34.72;;;1.70;99.90;;;;;;5024382;28;20461;-45
2020/12/02 09:20:08;;;;;;;86.90;40.38;;;1.70;99.90;;;;;;5021513;28;20063;-44
2020/12/02 09:22:34;;;;;;;72.80;31.30;;;1.70;99.90;;;;;;5023574;28;20124;-44
2020/12/02 09:24:59;;;;;;;102.15;45.53;;;1.70;99.90;;;;;;5020097;28;20041;-49
2020/12/02 09:27:25;;;;;;;87.82;37.35;;;1.70;99.90;;;;;;5025155;28;20044;-44
2020/12/02 09:29:51;;;;;;;87.72;35.90;;;1.70;99.90;;;;;;5028598;28;20029;-50
2020/12/02 09:32:17;;;;;;;82.32;37.33;;;1.80;99.90;;;;;;5024695;28;20034;-48
2020/12/02 09:34:42;;;;;;;76.13;33.97;;;1.80;99.90;;;;;;5025731;28;20392;-50
2020/12/02 09:37:12;;;;;;;95.78;40.33;;;1.80;99.90;;;;;;5032071;28;20048;-49
2020/12/02 09:39:39;;;;;;;87.68;38.10;;;1.90;99.90;;;;;;5031614;28;20455;-46
2020/12/02 09:42:19;;;;;;;82.50;36.05;;;1.90;99.90;;;;;;5031937;28;20116;-46
2020/12/02 09:45:15;;;;;;;93.25;40.40;;;1.90;99.90;;;;;;5030116;28;20112;-47
2020/12/02 09:47:41;;;;;;;96.05;40.28;;;1.90;99.90;;;;;;5026372;28;20052;-45
2020/12/02 09:50:07;;;;;;;88.63;40.92;;;1.90;99.90;;;;;;5021941;28;20029;-47
2020/12/02 09:52:40;;;;;;;90.50;40.13;;;2.00;99.90;;;;;;5027101;28;20556;-47
2020/12/02 09:55:17;;;;;;;102.45;45.95;;;2.00;99.90;;;;;;5020810;28;20038;-46
2020/12/02 09:57:43;;;;;;;89.35;40.38;;;2.10;99.90;;;;;;5018155;28;20037;-48
2020/12/02 10:00:12;;;;;;;79.90;37.78;;;2.10;99.90;;;;;;5017615;28;20075;-46
2020/12/02 10:03:17;;;;;;;77.75;32.53;;;2.00;99.90;;;;;;5021045;28;20081;-43
2020/12/02 10:06:02;;;;;;;92.07;39.45;;;2.00;99.90;;;;;;5024843;28;20091;-48
2020/12/02 10:09:03;;;;;;;88.50;37.90;;;2.00;99.90;;;;;;5035474;28;20030;-42
2020/12/02 10:11:51;;;;;;;105.97;45.00;;;2.00;99.90;;;;;;5020089;28;20036;-45
2020/12/02 10:14:51;;;;;;;91.93;41.40;;;2.10;99.90;;;;;;5020668;28;20037;-47
2020/12/02 10:17:56;;;;;;;74.85;35.33;;;2.20;99.90;;;;;;5022609;28;20033;-47
2020/12/02 10:20:39;;;;;;;89.22;42.35;;;2.20;99.90;;;;;;5018283;28;20124;-50
2020/12/02 10:23:16;;;;;;;80.60;38.00;;;2.20;99.90;;;;;;5026738;28;20060;-47
2020/12/02 10:25:57;;;;;;;78.55;37.13;;;2.20;99.90;;;;;;5017882;28;20037;-46
2020/12/02 10:28:44;;;;;;;80.53;37.25;;;2.10;99.90;;;;;;5020566;28;20033;-44
2020/12/02 10:31:39;;;;;;;83.82;38.92;;;2.10;99.90;;;;;;5020274;28;20034;-49
2020/12/02 10:34:16;;;;;;;78.80;35.20;;;2.20;99.90;;;;;;5017371;28;20029;-47
2020/12/02 10:37:16;;;;;;;82.80;38.38;;;2.30;99.90;;;;;;5017769;28;20029;-48
2020/12/02 10:39:42;;;;;;;69.03;32.40;;;2.30;99.90;;;;;;5019412;28;20425;-46
2020/12/02 10:42:41;;;;;;;72.07;34.70;;;2.30;99.90;;;;;;5019872;28;20041;-44
2020/12/02 10:45:10;;;;;;;63.42;30.98;;;2.40;99.90;;;;;;5018741;28;20083;-47
2020/12/02 10:48:10;;;;;;;98.53;44.53;;;2.40;99.90;;;;;;5025051;28;20017;-47
2020/12/02 10:50:39;;;;;;;85.63;39.05;;;2.50;99.90;;;;;;5020635;28;20029;-47
2020/12/02 10:53:13;;;;;;;77.65;37.88;;;2.50;99.90;;;;;;5020678;28;20033;-49
2020/12/02 10:55:39;;;;;;;93.97;45.72;;;2.50;99.90;;;;;;5026587;28;20480;-46
2020/12/02 10:58:13;;;;;;;73.28;35.67;;;2.50;99.90;;;;;;5018911;28;20080;-44
2020/12/02 11:00:39;;;;;;;80.90;35.95;;;2.60;99.90;;;;;;5019537;28;20042;-46
2020/12/02 11:03:17;;;;;;;85.40;41.15;;;2.60;99.90;;;;;;5027710;28;20108;-43
2020/12/02 11:06:06;;;;;;;87.88;42.22;;;2.60;99.90;;;;;;5027510;28;20381;-49
2020/12/02 11:08:56;;;;;;;96.18;44.35;;;2.60;99.90;;;;;;5016938;28;20045;-46
2020/12/02 11:11:27;;;;;;;73.13;35.40;;;2.50;99.90;;;;;;5020161;28;20092;-44
2020/12/02 11:14:24;;;;;;;86.30;39.92;;;2.50;99.90;;;;;;5027051;28;20651;-50
2020/12/02 11:17:03;;;;;;;78.15;38.63;;;2.60;99.90;;;;;;5021724;28;20028;-47
2020/12/02 11:20:05;;;;;;;89.72;44.60;;;2.50;99.90;;;;;;5018587;28;20069;-47
2020/12/02 11:23:05;;;;;;;78.43;38.30;;;2.60;99.90;;;;;;5017414;28;20048;-49
2020/12/02 11:25:45;;;;;;;78.35;38.47;;;2.60;99.90;;;;;;5018518;28;20033;-47
2020/12/02 11:28:11;;;;;;;96.97;44.15;;;2.60;99.90;;;;;;5021000;28;20037;-47
2020/12/02 11:30:40;;;;;;;77.80;37.95;;;2.60;99.90;;;;;;5020810;28;20033;-46
2020/12/02 11:33:43;;;;;;;70.45;34.92;;;2.60;99.90;;;;;;5018473;28;20029;-46
2020/12/02 11:36:44;;;;;;;75.07;38.75;;;2.70;99.90;;;;;;5018362;28;20119;-47
2020/12/02 11:39:28;;;;;;;79.28;37.65;;;2.80;99.90;;;;;;5018177;28;20144;-44
2020/12/02 11:42:00;;;;;;;89.10;42.75;;;2.80;99.90;;;;;;5017952;28;20064;-45
2020/12/02 11:45:13;;;;;;;77.25;38.08;;;2.80;99.90;;;;;;5019149;28;20043;-45
2020/12/02 11:48:00;;;;;;;78.10;36.58;;;2.70;99.90;;;;;;4982119;28;20062;-43
2020/12/02 11:50:44;;;;;;;76.75;35.05;;;2.70;99.90;;;;;;5015081;28;20021;-44
2020/12/02 11:53:38;;;;;;;77.95;38.20;;;2.70;99.90;;;;;;5017588;28;20022;-44
2020/12/02 11:56:04;;;;;;;84.82;40.33;;;2.70;99.90;;;;;;5013986;28;20026;-44
2020/12/02 11:58:30;;;;;;;81.07;39.53;;;2.60;99.90;;;;;;5018256;28;20115;-47
2020/12/02 12:01:12;;;;;;;66.57;32.35;;;2.60;99.90;;;;;;5020011;28;20041;-43
2020/12/02 12:03:46;;;;;;;69.72;33.30;;;2.60;99.90;;;;;;5017041;28;20042;-43
2020/12/02 12:06:17;;;;;;;71.35;31.25;;;2.70;99.90;;;;;;5016897;28;20088;-46
2020/12/02 12:09:08;;;;;;;72.00;33.92;;;2.70;99.90;;;;;;5016013;28;20098;-45
2020/12/02 12:11:36;;;;;;;76.30;36.70;;;2.70;99.90;;;;;;5014998;28;20053;-46
2020/12/02 12:14:23;;;;;;;79.50;38.67;;;2.80;99.90;;;;;;5020480;28;20032;-46
2020/12/02 12:17:19;;;;;;;77.35;36.10;;;2.80;99.90;;;;;;5023127;28;20097;-53
2020/12/02 12:19:58;;;;;;;71.53;35.30;;;2.80;99.90;;;;;;5028298;28;20041;-44
2020/12/02 12:22:27;;;;;;;76.72;36.72;;;2.80;99.90;;;;;;5019335;28;20133;-47
2020/12/02 12:25:06;;;;;;;70.15;33.53;;;2.80;99.90;;;;;;5022009;28;20116;-42
2020/12/02 12:27:32;;;;;;;66.20;32.13;;;2.80;99.90;;;;;;5023153;28;20099;-45
2020/12/02 12:29:57;;;;;;;76.43;34.90;;;2.90;99.90;;;;;;5018397;28;20470;-45
2020/12/02 12:32:39;;;;;;;75.85;34.25;;;3.00;99.90;;;;;;5016501;28;20040;-46
2020/12/02 12:35:11;;;;;;;73.35;36.22;;;3.00;99.90;;;;;;5019585;28;20025;-44
2020/12/02 12:37:37;;;;;;;76.07;33.85;;;3.00;99.90;;;;;;5020792;28;20030;-42
2020/12/02 12:40:13;;;;;;;73.97;33.83;;;3.00;99.90;;;;;;5019550;28;20040;-45
2020/12/02 12:42:39;;;;;;;62.75;29.98;;;3.00;99.90;;;;;;5019012;28;20441;-43
2020/12/02 12:45:16;;;;;;;75.15;35.83;;;3.00;99.90;;;;;;5015922;28;20488;-46
2020/12/02 12:47:44;;;;;;;79.22;38.33;;;3.00;99.90;;;;;;5019008;28;20034;-42
2020/12/02 12:50:12;;;;;;;68.97;30.80;;;2.90;99.90;;;;;;5023239;28;20155;-45
2020/12/02 12:52:37;;;;;;;67.68;33.97;;;2.90;99.90;;;;;;5015376;28;20029;-43
2020/12/02 12:55:05;;;;;;;66.78;32.33;;;2.80;99.90;;;;;;5018120;28;20043;-42
2020/12/02 12:57:31;;;;;;;68.10;32.70;;;2.80;99.90;;;;;;5014711;28;20484;-46
2020/12/02 13:00:04;;;;;;;72.55;35.25;;;2.80;99.90;;;;;;5018292;28;20030;-44
2020/12/02 13:02:35;;;;;;;68.97;32.58;;;2.80;99.90;;;;;;5025157;28;20560;-44